createdAt,value
2023-11-14T00:02:05.544Z,10.50
2023-11-14T00:04:36.174Z,10.50
2023-11-14T00:07:04.445Z,10.50
2023-11-14T00:09:35.161Z,10.50
2023-11-14T00:12:03.095Z,10.60
2023-11-14T00:14:32.889Z,10.60
2023-11-14T00:17:00.959Z,10.50
2023-11-14T00:19:30.280Z,10.60
2023-11-14T00:21:58.247Z,10.60
2023-11-14T00:24:29.826Z,10.50
2023-11-14T00:26:58.268Z,10.60
2023-11-14T00:29:26.765Z,10.60
2023-11-14T00:31:55.209Z,10.70
2023-11-14T00:34:23.662Z,10.70
2023-11-14T00:36:52.940Z,10.70
2023-11-14T00:39:20.822Z,10.70
2023-11-14T00:41:54.712Z,10.70
2023-11-14T00:44:23.245Z,10.70
2023-11-14T00:46:51.367Z,10.70
2023-11-14T00:49:19.287Z,10.70
2023-11-14T00:51:49.698Z,10.60
2023-11-14T00:54:18.891Z,10.50
2023-11-14T00:56:46.797Z,10.50
2023-11-14T00:59:16.375Z,10.60
2023-11-14T01:01:46.594Z,10.60
2023-11-14T01:04:14.520Z,10.60
2023-11-14T01:06:42.469Z,10.60
2023-11-14T01:09:11.202Z,10.50
2023-11-14T01:11:40.474Z,10.50
2023-11-14T01:14:09.561Z,10.60
2023-11-14T01:19:29.028Z,10.60
2023-11-14T01:21:56.971Z,10.70
2023-11-14T01:24:24.832Z,10.70
2023-11-14T01:26:54.155Z,10.60
2023-11-14T01:29:22.356Z,10.50
2023-11-14T01:31:50.280Z,10.40
2023-11-14T01:34:18.313Z,10.40
2023-11-14T01:36:46.176Z,10.30
2023-11-14T01:39:14.965Z,10.20
2023-11-14T01:41:43.199Z,10.20
2023-11-14T01:44:12.461Z,10.20
2023-11-14T01:46:40.659Z,10.20
2023-11-14T01:49:08.933Z,10.10
2023-11-14T01:51:37.330Z,10.20
2023-11-14T01:54:06.501Z,10.20
2023-11-14T01:56:34.433Z,10.20
2023-11-14T01:59:02.484Z,10.20
2023-11-14T02:01:32.173Z,10.20
2023-11-14T02:04:01.029Z,10.20
2023-11-14T02:06:30.223Z,10.20
2023-11-14T02:08:58.391Z,10.10
2023-11-14T02:11:26.286Z,10.10
2023-11-14T02:13:54.355Z,10.10
2023-11-14T02:16:22.457Z,10.10
2023-11-14T02:18:51.703Z,10.20
2023-11-14T02:21:19.650Z,10.30
2023-11-14T02:23:53.967Z,10.30
2023-11-14T02:26:23.233Z,10.30
2023-11-14T02:28:57.856Z,10.40
2023-11-14T02:31:25.786Z,10.30
2023-11-14T02:33:54.317Z,10.30
2023-11-14T02:36:22.153Z,10.20
2023-11-14T02:38:49.998Z,10.10
2023-11-14T02:41:17.854Z,10.00
2023-11-14T02:43:47.107Z,10.00
2023-11-14T02:46:15.019Z,9.90
2023-11-14T02:48:43.120Z,9.90
2023-11-14T02:51:11.058Z,9.90
2023-11-14T02:53:39.784Z,10.00
2023-11-14T02:56:08.596Z,10.10
2023-11-14T02:58:36.596Z,10.10
2023-11-14T03:01:05.954Z,10.20
2023-11-14T03:03:33.817Z,10.30
2023-11-14T03:06:04.286Z,10.30
2023-11-14T03:08:32.896Z,10.30
2023-11-14T03:11:02.341Z,10.30
2023-11-14T03:13:30.386Z,10.30
2023-11-14T03:15:58.499Z,10.30
2023-11-14T03:18:27.762Z,10.40
2023-11-14T03:20:55.734Z,10.40
2023-11-14T03:23:23.726Z,10.50
2023-11-14T03:25:51.578Z,10.50
2023-11-14T03:28:19.939Z,10.50
2023-11-14T03:30:48.086Z,10.60
2023-11-14T03:33:16.021Z,10.60
2023-11-14T03:35:45.315Z,10.50
2023-11-14T03:38:13.356Z,10.50
2023-11-14T03:40:41.337Z,10.50
2023-11-14T03:43:09.523Z,10.50
2023-11-14T03:45:37.713Z,10.50
2023-11-14T03:48:06.457Z,10.40
2023-11-14T03:50:34.327Z,10.40
2023-11-14T03:53:05.950Z,10.30
2023-11-14T03:55:34.218Z,10.30
2023-11-14T03:58:02.104Z,10.30
2023-11-14T04:00:29.932Z,10.20
2023-11-14T04:02:57.810Z,10.20
2023-11-14T04:05:25.894Z,10.10
2023-11-14T04:07:54.763Z,10.10
2023-11-14T04:10:24.233Z,10.10
2023-11-14T04:12:52.191Z,10.00
2023-11-14T04:15:20.212Z,10.00
2023-11-14T04:17:48.205Z,10.00
2023-11-14T04:20:16.335Z,9.90
2023-11-14T04:22:44.354Z,10.00
2023-11-14T04:25:12.300Z,10.00
2023-11-14T04:27:42.071Z,10.00
2023-11-14T04:30:12.461Z,10.00
2023-11-14T04:32:40.644Z,10.00
2023-11-14T04:35:11.259Z,9.90
2023-11-14T04:37:39.264Z,9.90
2023-11-14T04:40:10.561Z,9.90
2023-11-14T04:42:38.687Z,9.90
2023-11-14T04:45:09.142Z,9.90
2023-11-14T04:47:37.013Z,9.90
2023-11-14T04:50:05.224Z,9.90
2023-11-14T04:52:34.094Z,9.90
2023-11-14T04:55:02.105Z,9.90
2023-11-14T04:57:30.026Z,9.90
2023-11-14T04:59:57.887Z,9.90
2023-11-14T05:02:27.812Z,10.00
2023-11-14T05:04:55.663Z,10.00
2023-11-14T05:07:24.166Z,10.00
2023-11-14T05:09:53.130Z,10.00
2023-11-14T05:12:21.878Z,10.00
2023-11-14T05:14:50.689Z,10.00
2023-11-14T05:17:18.591Z,10.10
2023-11-14T05:19:48.908Z,10.10
2023-11-14T05:22:16.903Z,10.10
2023-11-14T05:24:44.871Z,10.10
2023-11-14T05:27:13.300Z,10.20
2023-11-14T05:29:41.537Z,10.20
2023-11-14T05:32:11.296Z,10.30
2023-11-14T05:34:39.398Z,10.30
2023-11-14T05:37:09.417Z,10.30
2023-11-14T05:39:37.328Z,10.40
2023-11-14T05:42:05.680Z,10.50
2023-11-14T05:44:33.681Z,10.60
2023-11-14T05:47:03.093Z,10.60
2023-11-14T05:49:33.182Z,10.50
2023-11-14T05:52:03.932Z,10.50
2023-11-14T05:54:36.804Z,10.40
2023-11-14T05:57:06.146Z,10.40
2023-11-14T05:59:34.395Z,10.30
2023-11-14T06:02:02.347Z,10.30
2023-11-14T06:04:32.663Z,10.40
2023-11-14T06:07:00.781Z,10.40
2023-11-14T06:09:28.634Z,10.40
2023-11-14T06:11:58.000Z,10.50
2023-11-14T06:14:25.851Z,10.50
2023-11-14T06:16:57.148Z,10.50
2023-11-14T06:19:26.017Z,10.50
2023-11-14T06:21:53.894Z,10.50
2023-11-14T06:24:21.823Z,10.60
2023-11-14T06:26:49.619Z,10.60
2023-11-14T06:29:19.115Z,10.60
2023-11-14T06:31:49.855Z,10.50
2023-11-14T06:34:19.422Z,10.60
2023-11-14T06:36:47.278Z,10.60
2023-11-14T06:39:17.383Z,10.70
2023-11-14T06:41:50.160Z,10.70
2023-11-14T06:44:19.730Z,10.70
2023-11-14T06:46:48.570Z,10.70
2023-11-14T06:49:16.552Z,10.80
2023-11-14T06:51:45.068Z,10.80
2023-11-14T06:54:13.096Z,10.90
2023-11-14T06:56:40.997Z,10.90
2023-11-14T06:59:09.231Z,10.90
2023-11-14T07:01:39.000Z,11.00
2023-11-14T07:04:07.981Z,11.00
2023-11-14T07:06:36.062Z,11.00
2023-11-14T07:09:03.903Z,11.00
2023-11-14T07:11:30.868Z,11.00
2023-11-14T07:13:58.732Z,11.00
2023-11-14T07:16:28.210Z,11.00
2023-11-14T07:18:57.650Z,11.10
2023-11-14T07:21:25.996Z,11.10
2023-11-14T07:23:56.748Z,11.20
2023-11-14T07:26:25.507Z,11.20
2023-11-14T07:28:54.016Z,11.20
2023-11-14T07:31:21.878Z,11.20
2023-11-14T07:33:49.736Z,11.10
2023-11-14T07:36:19.147Z,11.00
2023-11-14T07:41:15.253Z,11.30
2023-11-14T07:43:43.271Z,11.40
2023-11-14T07:46:11.341Z,11.50
2023-11-14T07:48:39.528Z,11.60
2023-11-14T07:51:07.738Z,11.70
2023-11-14T07:53:37.036Z,11.80
2023-11-14T07:56:05.647Z,11.80
2023-11-14T07:58:33.478Z,11.90
2023-11-14T08:01:01.311Z,12.00
2023-11-14T08:03:29.326Z,12.00
2023-11-14T08:05:57.223Z,12.00
2023-11-14T08:08:25.126Z,12.00
2023-11-14T08:10:54.620Z,12.00
2023-11-14T08:13:22.505Z,12.10
2023-11-14T08:15:51.030Z,12.10
2023-11-14T08:18:18.913Z,12.10
2023-11-14T08:20:46.833Z,12.10
2023-11-14T08:23:14.756Z,12.00
2023-11-14T08:25:42.699Z,12.00
2023-11-14T08:28:11.983Z,12.00
2023-11-14T08:30:39.896Z,12.00
2023-11-14T08:33:08.699Z,12.10
2023-11-14T08:35:37.581Z,12.10
2023-11-14T08:38:13.915Z,12.10
2023-11-14T08:40:45.821Z,12.10
2023-11-14T08:43:15.340Z,12.10
2023-11-14T08:45:44.196Z,12.10
2023-11-14T08:48:12.104Z,12.20
2023-11-14T08:50:40.719Z,12.30
2023-11-14T08:53:08.722Z,12.30
2023-11-14T08:55:36.955Z,12.30
2023-11-14T08:58:05.664Z,12.30
2023-11-14T09:00:36.555Z,12.20
2023-11-14T09:03:05.719Z,12.20
2023-11-14T09:05:35.386Z,12.20
2023-11-14T09:08:04.826Z,12.20
2023-11-14T09:10:34.543Z,12.30
2023-11-14T09:13:02.516Z,12.30
2023-11-14T09:15:30.520Z,12.30
2023-11-14T09:18:00.071Z,12.30
2023-11-14T09:20:28.279Z,12.30
2023-11-14T09:23:00.143Z,12.40
2023-11-14T09:25:29.655Z,12.40
2023-11-14T09:27:57.708Z,12.50
2023-11-14T09:30:25.598Z,12.50
2023-11-14T09:32:53.542Z,12.50
2023-11-14T09:35:22.843Z,12.50
2023-11-14T09:37:51.301Z,12.50
2023-11-14T09:40:23.688Z,12.50
2023-11-14T09:42:51.941Z,12.60
2023-11-14T09:45:21.794Z,12.60
2023-11-14T09:47:51.064Z,12.60
2023-11-14T09:50:21.801Z,12.50
2023-11-14T09:52:52.372Z,12.50
2023-11-14T09:55:20.471Z,12.50
2023-11-14T09:57:49.958Z,12.50
2023-11-14T10:00:21.697Z,12.50
2023-11-14T10:02:49.749Z,12.60
2023-11-14T10:05:20.402Z,12.60
2023-11-14T10:07:51.772Z,12.60
2023-11-14T10:10:22.862Z,12.60
2023-11-14T10:12:52.609Z,12.70
2023-11-14T10:15:29.258Z,12.70
2023-11-14T10:17:57.682Z,12.70
2023-11-14T10:20:34.438Z,12.70
2023-11-14T10:23:12.068Z,12.70
2023-11-14T10:25:45.497Z,12.80
2023-11-14T10:28:13.701Z,12.70
2023-11-14T10:30:50.786Z,12.70
2023-11-14T10:33:20.103Z,12.80
2023-11-14T10:35:48.204Z,12.70
2023-11-14T10:38:22.918Z,12.70
2023-11-14T10:40:53.971Z,12.70
2023-11-14T10:43:28.594Z,12.60
2023-11-14T10:45:56.817Z,12.50
2023-11-14T10:48:25.421Z,12.50
2023-11-14T10:50:54.049Z,12.50
2023-11-14T10:53:23.608Z,12.50
2023-11-14T10:55:53.928Z,12.60
2023-11-14T10:58:22.263Z,12.60
2023-11-14T11:00:52.676Z,12.70
2023-11-14T11:03:22.231Z,12.70
2023-11-14T11:05:50.220Z,12.70
2023-11-14T11:08:18.323Z,12.70
2023-11-14T11:10:47.798Z,12.70
2023-11-14T11:13:19.650Z,12.70
2023-11-14T11:15:49.854Z,12.70
2023-11-14T11:18:25.227Z,12.80
2023-11-14T11:20:53.193Z,12.80
2023-11-14T11:23:21.196Z,12.80
2023-11-14T11:26:15.010Z,12.80
2023-11-14T11:28:45.306Z,12.80
2023-11-14T11:31:15.965Z,12.90
2023-11-14T11:33:45.810Z,12.90
2023-11-14T11:36:31.032Z,13.00
2023-11-14T11:39:00.987Z,13.00
2023-11-14T11:41:33.926Z,13.00
2023-11-14T11:44:06.335Z,13.00
2023-11-14T11:46:47.736Z,13.00
2023-11-14T11:49:34.144Z,13.00
2023-11-14T11:52:13.881Z,13.10
2023-11-14T11:54:41.863Z,13.10
2023-11-14T11:57:12.773Z,13.10
2023-11-14T12:00:22.737Z,13.20
2023-11-14T12:02:52.163Z,13.20
2023-11-14T12:05:20.522Z,13.30
2023-11-14T12:07:49.865Z,13.40
2023-11-14T12:10:23.643Z,13.40
2023-11-14T12:12:58.832Z,13.40
2023-11-14T12:15:29.508Z,13.40
2023-11-14T12:17:58.502Z,13.40
2023-11-14T12:20:27.360Z,13.40
2023-11-14T12:22:59.663Z,13.40
2023-11-14T12:25:27.639Z,13.30
2023-11-14T12:28:02.870Z,13.30
2023-11-14T12:30:31.653Z,13.20
2023-11-14T12:33:08.150Z,13.20
2023-11-14T12:35:54.746Z,13.20
2023-11-14T12:38:35.809Z,13.20
2023-11-14T12:41:27.694Z,13.20
2023-11-14T12:44:06.085Z,13.30
2023-11-14T12:46:40.815Z,13.30
2023-11-14T12:49:12.605Z,13.30
2023-11-14T12:51:45.665Z,13.30
2023-11-14T12:54:15.201Z,13.30
2023-11-14T12:56:43.564Z,13.30
2023-11-14T12:59:13.112Z,13.30
2023-11-14T13:01:42.545Z,13.30
2023-11-14T13:04:13.415Z,13.40
2023-11-14T13:06:43.966Z,13.40
2023-11-14T13:09:12.112Z,13.40
2023-11-14T13:11:41.069Z,13.50
2023-11-14T13:14:14.155Z,13.50
2023-11-14T13:16:43.903Z,13.50
2023-11-14T13:19:12.958Z,13.40
2023-11-14T13:21:40.857Z,13.40
2023-11-14T13:24:09.586Z,13.30
2023-11-14T13:26:38.475Z,13.30
2023-11-14T13:29:07.004Z,13.30
2023-11-14T13:31:36.419Z,13.30
2023-11-14T13:34:04.563Z,13.30
2023-11-14T13:36:32.886Z,13.30
2023-11-14T13:39:00.782Z,13.30
2023-11-14T13:41:30.895Z,13.40
2023-11-14T13:43:59.228Z,13.40
2023-11-14T13:46:28.742Z,13.30
2023-11-14T13:48:59.120Z,13.30
2023-11-14T13:51:27.094Z,13.30
2023-11-14T13:53:55.005Z,13.30
2023-11-14T13:56:23.349Z,13.30
2023-11-14T13:58:51.656Z,13.30
2023-11-14T14:01:19.738Z,13.30
2023-11-14T14:03:47.834Z,13.30
2023-11-14T14:06:17.199Z,13.40
2023-11-14T14:08:45.134Z,13.30
2023-11-14T14:11:16.676Z,13.30
2023-11-14T14:13:44.786Z,13.30
2023-11-14T14:16:15.515Z,13.30
2023-11-14T14:18:45.666Z,13.30
2023-11-14T14:21:15.113Z,13.30
2023-11-14T14:23:45.359Z,13.30
2023-11-14T14:26:13.365Z,13.30
2023-11-14T14:28:41.903Z,13.20
2023-11-14T14:31:10.603Z,13.20
2023-11-14T14:33:39.454Z,13.20
2023-11-14T14:36:08.305Z,13.20
2023-11-14T14:38:36.236Z,13.20
2023-11-14T14:41:06.297Z,13.10
2023-11-14T14:43:34.305Z,13.10
2023-11-14T14:46:02.310Z,13.10
2023-11-14T14:48:30.732Z,13.10
2023-11-14T14:50:58.838Z,13.00
2023-11-14T14:53:28.641Z,13.00
2023-11-14T14:55:56.529Z,13.00
2023-11-14T14:58:25.932Z,13.00
2023-11-14T15:00:53.817Z,13.00
2023-11-14T15:03:22.593Z,13.00
2023-11-14T15:05:52.034Z,13.00
2023-11-14T15:08:21.461Z,12.90
2023-11-14T15:10:50.419Z,13.00
2023-11-14T15:13:21.772Z,12.90
2023-11-14T15:15:52.026Z,12.90
2023-11-14T15:18:20.589Z,12.90
2023-11-14T15:20:50.656Z,12.90
2023-11-14T15:23:19.599Z,12.80
2023-11-14T15:25:48.510Z,12.80
2023-11-14T15:28:16.667Z,12.80
2023-11-14T15:30:46.464Z,12.80
2023-11-14T15:33:17.498Z,12.80
2023-11-14T15:35:47.296Z,12.80
2023-11-14T15:38:16.247Z,12.80
2023-11-14T15:40:44.935Z,12.80
2023-11-14T15:43:14.104Z,12.70
2023-11-14T15:45:42.068Z,12.70
2023-11-14T15:48:10.866Z,12.70
2023-11-14T15:50:40.211Z,12.70
2023-11-14T15:53:08.144Z,12.70
2023-11-14T15:55:36.032Z,12.60
2023-11-14T15:58:03.958Z,12.60
2023-11-14T16:00:33.866Z,12.60
2023-11-14T16:03:01.788Z,12.60
2023-11-14T16:05:29.778Z,12.60
2023-11-14T16:08:00.446Z,12.50
2023-11-14T16:10:28.438Z,12.50
2023-11-14T16:12:56.274Z,12.40
2023-11-14T16:15:24.145Z,12.40
2023-11-14T16:17:52.342Z,12.30
2023-11-14T16:20:21.727Z,12.30
2023-11-14T16:22:49.990Z,12.10
2023-11-14T16:25:22.944Z,12.00
2023-11-14T16:27:51.191Z,11.90
2023-11-14T16:30:21.623Z,11.80
2023-11-14T16:32:49.705Z,11.70
2023-11-14T16:35:17.763Z,11.70
2023-11-14T16:37:45.715Z,11.60
2023-11-14T16:40:13.994Z,11.50
2023-11-14T16:42:44.960Z,11.50
2023-11-14T16:45:12.968Z,11.50
2023-11-14T16:47:41.319Z,11.40
2023-11-14T16:50:10.425Z,11.40
2023-11-14T16:52:40.527Z,11.40
2023-11-14T16:55:09.478Z,11.30
2023-11-14T16:57:39.997Z,11.30
2023-11-14T17:00:10.961Z,11.30
2023-11-14T17:02:39.232Z,11.30
2023-11-14T17:05:08.283Z,11.30
2023-11-14T17:07:36.383Z,11.20
2023-11-14T17:10:04.607Z,11.20
2023-11-14T17:12:34.363Z,11.20
2023-11-14T17:15:07.526Z,11.20
2023-11-14T17:17:36.899Z,11.20
2023-11-14T17:20:06.751Z,11.20
2023-11-14T17:22:34.848Z,11.20
2023-11-14T17:25:02.688Z,11.10
2023-11-14T17:27:31.982Z,11.10
2023-11-14T17:29:59.838Z,11.10
2023-11-14T17:32:30.805Z,11.10
2023-11-14T17:35:01.455Z,11.00
2023-11-14T17:37:29.652Z,11.00
2023-11-14T17:39:57.636Z,11.00
2023-11-14T17:42:25.488Z,11.00
2023-11-14T17:44:53.407Z,11.00
2023-11-14T17:47:22.737Z,11.00
2023-11-14T17:49:51.125Z,11.00
2023-11-14T17:52:21.841Z,11.00
2023-11-14T17:54:49.920Z,11.00
2023-11-14T17:57:18.244Z,11.00
2023-11-14T17:59:46.215Z,10.90
2023-11-14T18:02:14.200Z,10.90
2023-11-14T18:04:42.379Z,10.90
2023-11-14T18:07:12.671Z,10.80
2023-11-14T18:09:42.054Z,10.80
2023-11-14T18:12:10.026Z,10.70
2023-11-14T18:14:37.928Z,10.70
2023-11-14T18:17:07.416Z,10.70
2023-11-14T18:19:37.464Z,10.70
2023-11-14T18:22:06.829Z,10.70
2023-11-14T18:24:34.859Z,10.70
2023-11-14T18:27:05.264Z,10.70
2023-11-14T18:29:33.213Z,10.70
2023-11-14T18:32:01.339Z,10.70
2023-11-14T18:34:29.335Z,10.70
2023-11-14T18:36:57.230Z,10.70
2023-11-14T18:39:25.096Z,10.60
2023-11-14T18:41:53.932Z,10.60
2023-11-14T18:44:25.716Z,10.60
2023-11-14T18:46:53.983Z,10.70
2023-11-14T18:49:50.427Z,10.60
2023-11-14T18:52:18.677Z,10.60
2023-11-14T18:54:47.637Z,10.60
2023-11-14T18:57:18.703Z,10.60
2023-11-14T19:00:15.902Z,10.60
2023-11-14T19:03:15.231Z,10.60
2023-11-14T19:06:18.882Z,10.60
2023-11-14T19:09:08.488Z,10.60
2023-11-14T19:11:44.382Z,10.60
2023-11-14T19:14:18.901Z,10.60
2023-11-14T19:16:53.465Z,10.70
2023-11-14T19:19:28.780Z,10.70
2023-11-14T19:22:05.344Z,10.70
2023-11-14T19:27:44.749Z,10.70
2023-11-14T19:30:15.963Z,10.70
2023-11-14T19:32:47.482Z,10.70
2023-11-14T19:35:15.598Z,10.80
2023-11-14T19:37:49.712Z,10.80
2023-11-14T19:40:18.208Z,10.80
2023-11-14T19:43:00.199Z,10.80
2023-11-14T19:45:28.048Z,10.80
2023-11-14T19:47:57.385Z,10.80
2023-11-14T19:50:25.535Z,10.80
2023-11-14T19:52:53.446Z,10.80
2023-11-14T19:55:21.365Z,10.80
2023-11-14T19:57:49.237Z,10.80
2023-11-14T20:00:18.919Z,10.80
2023-11-14T20:02:46.920Z,10.80
2023-11-14T20:05:16.976Z,10.80
2023-11-14T20:07:45.079Z,10.80
2023-11-14T20:10:14.744Z,10.80
2023-11-14T20:12:44.329Z,10.80
2023-11-14T20:15:14.341Z,10.80
2023-11-14T20:17:44.238Z,10.80
2023-11-14T20:20:13.183Z,10.80
2023-11-14T20:22:42.667Z,10.80
2023-11-14T20:25:10.996Z,10.80
2023-11-14T20:27:43.393Z,10.80
2023-11-14T20:30:12.073Z,10.90
2023-11-14T20:32:40.011Z,10.90
2023-11-14T20:35:08.626Z,10.90
2023-11-14T20:37:36.765Z,11.00
2023-11-14T20:40:07.033Z,11.00
2023-11-14T20:42:34.945Z,10.90
2023-11-14T20:45:02.973Z,10.90
2023-11-14T20:47:30.900Z,11.00
2023-11-14T20:49:58.949Z,10.90
2023-11-14T20:52:26.843Z,10.90
2023-11-14T20:54:56.813Z,10.90
2023-11-14T20:57:26.407Z,10.90
2023-11-14T20:59:54.524Z,10.90
2023-11-14T21:02:22.436Z,10.90
2023-11-14T21:04:50.512Z,11.00
2023-11-14T21:07:18.649Z,11.00
2023-11-14T21:09:46.495Z,11.00
2023-11-14T21:12:14.348Z,11.00
2023-11-14T21:14:44.401Z,11.10
2023-11-14T21:17:12.404Z,11.10
2023-11-14T21:19:40.404Z,11.20
2023-11-14T21:22:08.353Z,11.20
2023-11-14T21:24:36.340Z,11.20
2023-11-14T21:27:04.350Z,11.20
2023-11-14T21:29:32.401Z,11.20
2023-11-14T21:32:02.144Z,11.20
2023-11-14T21:34:30.231Z,11.20
2023-11-14T21:36:58.133Z,11.20
2023-11-14T21:39:28.968Z,11.10
2023-11-14T21:42:10.581Z,11.10
2023-11-14T21:44:38.627Z,11.20
2023-11-14T21:47:08.263Z,11.20
2023-11-14T21:49:42.571Z,11.20
2023-11-14T21:52:11.132Z,11.20
2023-11-14T21:54:39.022Z,11.20
2023-11-14T21:57:15.539Z,11.10
2023-11-14T21:59:43.658Z,11.10
2023-11-14T22:02:17.910Z,11.10
2023-11-14T22:04:46.424Z,11.10
2023-11-14T22:07:14.286Z,11.10
2023-11-14T22:09:42.139Z,11.10
2023-11-14T22:12:10.630Z,11.10
2023-11-14T22:14:38.563Z,11.10
2023-11-14T22:17:08.162Z,11.10
2023-11-14T22:19:37.413Z,11.10
2023-11-14T22:22:05.539Z,11.10
2023-11-14T22:24:33.404Z,11.00
2023-11-14T22:27:01.274Z,11.00
2023-11-14T22:29:29.242Z,10.90
2023-11-14T22:31:57.129Z,10.70
2023-11-14T22:34:25.063Z,10.50
2023-11-14T22:36:54.267Z,10.50
2023-11-14T22:39:22.134Z,10.40
2023-11-14T22:41:50.837Z,10.30
2023-11-14T22:44:18.868Z,10.30
2023-11-14T22:46:47.050Z,10.30
2023-11-14T22:49:15.619Z,10.30
2023-11-14T22:51:43.521Z,10.30
2023-11-14T22:54:12.703Z,10.30
2023-11-14T22:56:40.690Z,10.30
2023-11-14T22:59:10.433Z,10.30
2023-11-14T23:01:38.852Z,10.30
2023-11-14T23:04:10.266Z,10.40
2023-11-14T23:06:40.584Z,10.40
2023-11-14T23:09:15.579Z,10.40
2023-11-14T23:11:45.837Z,10.50
2023-11-14T23:14:14.451Z,10.50
2023-11-14T23:16:42.650Z,10.50
2023-11-14T23:19:10.720Z,10.50
2023-11-14T23:21:43.021Z,10.50
2023-11-14T23:24:17.297Z,10.50
2023-11-14T23:26:46.627Z,10.50
2023-11-14T23:29:28.745Z,10.50
2023-11-14T23:31:58.082Z,10.50
2023-11-14T23:34:26.210Z,10.50
2023-11-14T23:36:54.066Z,10.50
2023-11-14T23:39:21.932Z,10.50
2023-11-14T23:41:51.421Z,10.50
2023-11-14T23:44:19.763Z,10.50
2023-11-14T23:46:47.922Z,10.50
2023-11-14T23:49:17.067Z,10.60
2023-11-14T23:51:44.946Z,10.60
2023-11-14T23:54:12.942Z,10.60
2023-11-14T23:56:41.712Z,10.60
2023-11-14T23:59:11.205Z,10.60
